sensor_id;sensor_type;location;lat;lon;timestamp;temperature;humidity
6008;DHT22;3032;49.484;11.112;2023-04-24T00:00:57;12.40;99.90
6008;DHT22;3032;49.484;11.112;2023-04-24T00:03:24;12.40;99.90
6008;DHT22;3032;49.484;11.112;2023-04-24T00:05:50;12.50;99.90
6008;DHT22;3032;49.484;11.112;2023-04-24T00:08:16;12.00;99.90
6008;DHT22;3032;49.484;11.112;2023-04-24T00:10:42;11.90;99.90
6008;DHT22;3032;49.484;11.112;2023-04-24T00:13:08;11.80;99.90
6008;DHT22;3032;49.484;11.112;2023-04-24T00:15:33;11.80;99.90
6008;DHT22;3032;49.484;11.112;2023-04-24T00:17:59;11.80;99.90
6008;DHT22;3032;49.484;11.112;2023-04-24T00:20:26;11.80;99.90
6008;DHT22;3032;49.484;11.112;2023-04-24T00:22:53;11.90;99.90
6008;DHT22;3032;49.484;11.112;2023-04-24T00:25:19;12.10;99.90
6008;DHT22;3032;49.484;11.112;2023-04-24T00:27:44;12.30;99.90
6008;DHT22;3032;49.484;11.112;2023-04-24T00:30:10;12.40;99.90
6008;DHT22;3032;49.484;11.112;2023-04-24T00:32:36;12.40;99.90
6008;DHT22;3032;49.484;11.112;2023-04-24T00:35:01;12.30;99.90
6008;DHT22;3032;49.484;11.112;2023-04-24T00:37:27;12.60;99.90
6008;DHT22;3032;49.484;11.112;2023-04-24T00:39:52;12.80;99.90
6008;DHT22;3032;49.484;11.112;2023-04-24T00:42:18;12.90;99.90
6008;DHT22;3032;49.484;11.112;2023-04-24T00:44:44;12.70;99.90
6008;DHT22;3032;49.484;11.112;2023-04-24T00:47:10;12.30;99.90
6008;DHT22;3032;49.484;11.112;2023-04-24T00:49:37;12.40;99.90
6008;DHT22;3032;49.484;11.112;2023-04-24T00:52:02;12.50;99.90
6008;DHT22;3032;49.484;11.112;2023-04-24T00:54:32;12.50;99.90
6008;DHT22;3032;49.484;11.112;2023-04-24T00:56:58;12.50;99.90
6008;DHT22;3032;49.484;11.112;2023-04-24T00:59:24;12.40;99.90
6008;DHT22;3032;49.484;11.112;2023-04-24T01:01:49;12.50;99.90
6008;DHT22;3032;49.484;11.112;2023-04-24T01:04:16;12.70;99.90
6008;DHT22;3032;49.484;11.112;2023-04-24T01:06:43;12.90;99.90
6008;DHT22;3032;49.484;11.112;2023-04-24T01:09:10;12.80;99.90
6008;DHT22;3032;49.484;11.112;2023-04-24T01:11:37;12.80;99.90
6008;DHT22;3032;49.484;11.112;2023-04-24T01:14:03;12.50;99.90
6008;DHT22;3032;49.484;11.112;2023-04-24T01:16:28;12.70;99.90
6008;DHT22;3032;49.484;11.112;2023-04-24T01:18:54;12.90;99.90
6008;DHT22;3032;49.484;11.112;2023-04-24T01:21:21;12.80;99.90
6008;DHT22;3032;49.484;11.112;2023-04-24T01:23:47;12.90;99.90
6008;DHT22;3032;49.484;11.112;2023-04-24T01:26:16;12.70;99.90
6008;DHT22;3032;49.484;11.112;2023-04-24T01:28:42;12.60;99.90
6008;DHT22;3032;49.484;11.112;2023-04-24T01:31:08;12.70;99.90
6008;DHT22;3032;49.484;11.112;2023-04-24T01:33:33;12.90;99.90
6008;DHT22;3032;49.484;11.112;2023-04-24T01:35:59;13.00;99.90
6008;DHT22;3032;49.484;11.112;2023-04-24T01:38:25;13.20;99.90
6008;DHT22;3032;49.484;11.112;2023-04-24T01:40:51;12.80;99.90
6008;DHT22;3032;49.484;11.112;2023-04-24T01:43:18;12.90;99.90
6008;DHT22;3032;49.484;11.112;2023-04-24T01:45:44;13.10;99.90
6008;DHT22;3032;49.484;11.112;2023-04-24T01:48:10;13.10;99.90
6008;DHT22;3032;49.484;11.112;2023-04-24T01:50:36;13.00;99.90
6008;DHT22;3032;49.484;11.112;2023-04-24T01:53:02;13.10;99.90
6008;DHT22;3032;49.484;11.112;2023-04-24T01:55:27;13.10;99.90
6008;DHT22;3032;49.484;11.112;2023-04-24T01:57:55;13.70;99.90
6008;DHT22;3032;49.484;11.112;2023-04-24T02:00:22;13.20;99.90
6008;DHT22;3032;49.484;11.112;2023-04-24T02:02:48;13.20;99.90
6008;DHT22;3032;49.484;11.112;2023-04-24T02:05:13;13.30;99.90
6008;DHT22;3032;49.484;11.112;2023-04-24T02:07:39;13.40;99.90
6008;DHT22;3032;49.484;11.112;2023-04-24T02:10:05;13.50;99.90
6008;DHT22;3032;49.484;11.112;2023-04-24T02:12:31;13.50;99.90
6008;DHT22;3032;49.484;11.112;2023-04-24T02:14:56;13.60;99.90
6008;DHT22;3032;49.484;11.112;2023-04-24T02:17:22;13.50;99.90
6008;DHT22;3032;49.484;11.112;2023-04-24T02:19:48;13.40;99.90
6008;DHT22;3032;49.484;11.112;2023-04-24T02:22:13;12.80;99.90
6008;DHT22;3032;49.484;11.112;2023-04-24T02:24:39;12.80;99.90
6008;DHT22;3032;49.484;11.112;2023-04-24T02:27:05;13.00;99.90
6008;DHT22;3032;49.484;11.112;2023-04-24T02:29:31;13.20;99.90
6008;DHT22;3032;49.484;11.112;2023-04-24T02:31:57;13.30;99.90
6008;DHT22;3032;49.484;11.112;2023-04-24T02:34:22;13.40;99.90
6008;DHT22;3032;49.484;11.112;2023-04-24T02:36:48;13.50;99.90
6008;DHT22;3032;49.484;11.112;2023-04-24T02:39:14;13.50;99.90
6008;DHT22;3032;49.484;11.112;2023-04-24T02:41:42;13.80;99.90
6008;DHT22;3032;49.484;11.112;2023-04-24T02:44:08;13.20;99.90
6008;DHT22;3032;49.484;11.112;2023-04-24T02:46:33;12.80;99.90
6008;DHT22;3032;49.484;11.112;2023-04-24T02:48:59;12.70;99.90
6008;DHT22;3032;49.484;11.112;2023-04-24T02:51:24;12.70;99.90
6008;DHT22;3032;49.484;11.112;2023-04-24T02:53:50;13.00;99.90
6008;DHT22;3032;49.484;11.112;2023-04-24T02:56:16;12.90;99.90
6008;DHT22;3032;49.484;11.112;2023-04-24T02:58:41;12.80;99.90
6008;DHT22;3032;49.484;11.112;2023-04-24T03:01:07;13.00;99.90
6008;DHT22;3032;49.484;11.112;2023-04-24T03:03:35;13.10;99.90
6008;DHT22;3032;49.484;11.112;2023-04-24T03:06:00;13.10;99.90
6008;DHT22;3032;49.484;11.112;2023-04-24T03:08:27;12.60;99.90
6008;DHT22;3032;49.484;11.112;2023-04-24T03:10:52;12.40;99.90
6008;DHT22;3032;49.484;11.112;2023-04-24T03:13:18;12.80;99.90
6008;DHT22;3032;49.484;11.112;2023-04-24T03:15:44;12.80;99.90
6008;DHT22;3032;49.484;11.112;2023-04-24T03:18:11;12.70;99.90
6008;DHT22;3032;49.484;11.112;2023-04-24T03:20:37;12.70;99.90
6008;DHT22;3032;49.484;11.112;2023-04-24T03:23:03;12.50;99.90
6008;DHT22;3032;49.484;11.112;2023-04-24T03:25:28;12.70;99.90
6008;DHT22;3032;49.484;11.112;2023-04-24T03:27:54;12.70;99.90
6008;DHT22;3032;49.484;11.112;2023-04-24T03:30:20;12.70;99.90
6008;DHT22;3032;49.484;11.112;2023-04-24T03:32:45;12.90;99.90
6008;DHT22;3032;49.484;11.112;2023-04-24T03:35:11;12.90;99.90
6008;DHT22;3032;49.484;11.112;2023-04-24T03:37:36;12.50;99.90
6008;DHT22;3032;49.484;11.112;2023-04-24T03:40:02;12.40;99.90
6008;DHT22;3032;49.484;11.112;2023-04-24T03:42:28;11.90;99.90
6008;DHT22;3032;49.484;11.112;2023-04-24T03:44:54;11.80;99.90
6008;DHT22;3032;49.484;11.112;2023-04-24T03:47:19;11.80;99.90
6008;DHT22;3032;49.484;11.112;2023-04-24T03:49:45;11.60;99.90
6008;DHT22;3032;49.484;11.112;2023-04-24T03:52:10;11.50;99.90
6008;DHT22;3032;49.484;11.112;2023-04-24T03:54:36;11.80;99.90
6008;DHT22;3032;49.484;11.112;2023-04-24T03:57:01;11.90;99.90
6008;DHT22;3032;49.484;11.112;2023-04-24T03:59:28;11.80;99.90
6008;DHT22;3032;49.484;11.112;2023-04-24T04:01:54;11.90;99.90
6008;DHT22;3032;49.484;11.112;2023-04-24T04:04:19;12.10;99.90
6008;DHT22;3032;49.484;11.112;2023-04-24T04:06:45;12.00;99.90
6008;DHT22;3032;49.484;11.112;2023-04-24T04:09:12;12.00;99.90
6008;DHT22;3032;49.484;11.112;2023-04-24T04:11:37;11.90;99.90
6008;DHT22;3032;49.484;11.112;2023-04-24T04:14:03;11.60;99.90
6008;DHT22;3032;49.484;11.112;2023-04-24T04:16:29;11.40;99.90
6008;DHT22;3032;49.484;11.112;2023-04-24T04:18:54;11.50;99.90
6008;DHT22;3032;49.484;11.112;2023-04-24T04:21:20;11.90;99.90
6008;DHT22;3032;49.484;11.112;2023-04-24T04:23:46;11.80;99.90
6008;DHT22;3032;49.484;11.112;2023-04-24T04:26:11;11.90;99.90
6008;DHT22;3032;49.484;11.112;2023-04-24T04:28:38;12.00;99.90
6008;DHT22;3032;49.484;11.112;2023-04-24T04:31:04;12.20;99.90
6008;DHT22;3032;49.484;11.112;2023-04-24T04:33:30;12.20;99.90
6008;DHT22;3032;49.484;11.112;2023-04-24T04:35:57;12.20;99.90
6008;DHT22;3032;49.484;11.112;2023-04-24T04:38:24;12.30;99.90
6008;DHT22;3032;49.484;11.112;2023-04-24T04:40:51;12.20;99.90
6008;DHT22;3032;49.484;11.112;2023-04-24T04:43:17;11.90;99.90
6008;DHT22;3032;49.484;11.112;2023-04-24T04:45:42;11.70;99.90
6008;DHT22;3032;49.484;11.112;2023-04-24T04:48:09;11.80;99.90
6008;DHT22;3032;49.484;11.112;2023-04-24T04:50:37;11.40;99.90
6008;DHT22;3032;49.484;11.112;2023-04-24T04:53:03;11.40;99.90
6008;DHT22;3032;49.484;11.112;2023-04-24T04:55:28;11.50;99.90
6008;DHT22;3032;49.484;11.112;2023-04-24T04:57:54;11.20;99.90
6008;DHT22;3032;49.484;11.112;2023-04-24T05:00:21;11.30;99.90
6008;DHT22;3032;49.484;11.112;2023-04-24T05:02:47;11.60;99.90
6008;DHT22;3032;49.484;11.112;2023-04-24T05:05:12;11.30;99.90
6008;DHT22;3032;49.484;11.112;2023-04-24T05:07:38;11.00;99.90
6008;DHT22;3032;49.484;11.112;2023-04-24T05:10:04;11.00;99.90
6008;DHT22;3032;49.484;11.112;2023-04-24T05:12:30;11.40;99.90
6008;DHT22;3032;49.484;11.112;2023-04-24T05:14:57;12.20;99.90
6008;DHT22;3032;49.484;11.112;2023-04-24T05:17:23;12.40;99.90
6008;DHT22;3032;49.484;11.112;2023-04-24T05:19:49;12.90;99.90
6008;DHT22;3032;49.484;11.112;2023-04-24T05:22:14;12.50;99.90
6008;DHT22;3032;49.484;11.112;2023-04-24T05:24:40;12.60;99.90
6008;DHT22;3032;49.484;11.112;2023-04-24T05:27:05;12.60;99.90
6008;DHT22;3032;49.484;11.112;2023-04-24T05:29:31;12.80;99.90
6008;DHT22;3032;49.484;11.112;2023-04-24T05:31:58;12.70;99.90
6008;DHT22;3032;49.484;11.112;2023-04-24T05:34:24;12.80;99.90
6008;DHT22;3032;49.484;11.112;2023-04-24T05:36:50;13.10;99.90
6008;DHT22;3032;49.484;11.112;2023-04-24T05:39:16;13.00;99.90
6008;DHT22;3032;49.484;11.112;2023-04-24T05:41:41;12.90;99.90
6008;DHT22;3032;49.484;11.112;2023-04-24T05:44:07;13.10;99.90
6008;DHT22;3032;49.484;11.112;2023-04-24T05:46:33;13.50;99.90
6008;DHT22;3032;49.484;11.112;2023-04-24T05:48:58;13.90;99.90
6008;DHT22;3032;49.484;11.112;2023-04-24T05:51:24;14.20;99.90
6008;DHT22;3032;49.484;11.112;2023-04-24T05:53:51;14.20;99.90
6008;DHT22;3032;49.484;11.112;2023-04-24T05:56:17;14.00;99.90
6008;DHT22;3032;49.484;11.112;2023-04-24T05:58:42;14.10;99.90
6008;DHT22;3032;49.484;11.112;2023-04-24T06:01:08;13.80;99.90
6008;DHT22;3032;49.484;11.112;2023-04-24T06:03:33;13.80;99.90
6008;DHT22;3032;49.484;11.112;2023-04-24T06:05:59;14.00;99.90
6008;DHT22;3032;49.484;11.112;2023-04-24T06:08:25;13.80;99.90
6008;DHT22;3032;49.484;11.112;2023-04-24T06:10:51;14.00;99.90
6008;DHT22;3032;49.484;11.112;2023-04-24T06:13:16;13.70;99.90
6008;DHT22;3032;49.484;11.112;2023-04-24T06:15:43;13.30;99.90
6008;DHT22;3032;49.484;11.112;2023-04-24T06:18:08;13.30;99.90
6008;DHT22;3032;49.484;11.112;2023-04-24T06:20:35;13.60;99.90
6008;DHT22;3032;49.484;11.112;2023-04-24T06:23:01;14.00;99.90
6008;DHT22;3032;49.484;11.112;2023-04-24T06:25:28;14.10;99.90
6008;DHT22;3032;49.484;11.112;2023-04-24T06:27:55;14.40;99.90
6008;DHT22;3032;49.484;11.112;2023-04-24T06:30:21;13.90;99.90
6008;DHT22;3032;49.484;11.112;2023-04-24T06:32:46;13.70;99.90
6008;DHT22;3032;49.484;11.112;2023-04-24T06:35:12;13.90;99.90
6008;DHT22;3032;49.484;11.112;2023-04-24T06:37:39;13.70;99.90
6008;DHT22;3032;49.484;11.112;2023-04-24T06:40:06;13.40;99.90
6008;DHT22;3032;49.484;11.112;2023-04-24T06:42:31;13.20;99.90
6008;DHT22;3032;49.484;11.112;2023-04-24T06:44:57;13.10;99.90
6008;DHT22;3032;49.484;11.112;2023-04-24T06:47:23;12.70;99.90
6008;DHT22;3032;49.484;11.112;2023-04-24T06:49:48;12.40;99.90
6008;DHT22;3032;49.484;11.112;2023-04-24T06:52:16;12.30;99.90
6008;DHT22;3032;49.484;11.112;2023-04-24T06:54:42;12.20;99.90
6008;DHT22;3032;49.484;11.112;2023-04-24T06:57:08;12.10;99.90
6008;DHT22;3032;49.484;11.112;2023-04-24T06:59:33;12.20;99.90
6008;DHT22;3032;49.484;11.112;2023-04-24T07:01:59;12.30;99.90
6008;DHT22;3032;49.484;11.112;2023-04-24T07:04:25;12.60;99.90
6008;DHT22;3032;49.484;11.112;2023-04-24T07:06:51;13.00;99.90
6008;DHT22;3032;49.484;11.112;2023-04-24T07:09:19;13.40;99.90
6008;DHT22;3032;49.484;11.112;2023-04-24T07:11:46;13.40;99.90
6008;DHT22;3032;49.484;11.112;2023-04-24T07:14:12;13.40;99.90
6008;DHT22;3032;49.484;11.112;2023-04-24T07:16:37;13.50;99.90
6008;DHT22;3032;49.484;11.112;2023-04-24T07:19:03;13.60;99.90
6008;DHT22;3032;49.484;11.112;2023-04-24T07:21:29;14.00;99.90
6008;DHT22;3032;49.484;11.112;2023-04-24T07:23:57;14.10;99.90
6008;DHT22;3032;49.484;11.112;2023-04-24T07:26:23;14.60;99.90
6008;DHT22;3032;49.484;11.112;2023-04-24T07:28:48;14.80;99.90
6008;DHT22;3032;49.484;11.112;2023-04-24T07:31:14;14.60;99.90
6008;DHT22;3032;49.484;11.112;2023-04-24T07:33:40;14.40;99.90
6008;DHT22;3032;49.484;11.112;2023-04-24T07:36:06;14.40;99.90
6008;DHT22;3032;49.484;11.112;2023-04-24T07:38:31;14.60;99.90
6008;DHT22;3032;49.484;11.112;2023-04-24T07:40:57;14.60;99.90
6008;DHT22;3032;49.484;11.112;2023-04-24T07:43:23;14.70;99.90
6008;DHT22;3032;49.484;11.112;2023-04-24T07:45:49;14.80;99.90
6008;DHT22;3032;49.484;11.112;2023-04-24T07:48:15;14.70;99.90
6008;DHT22;3032;49.484;11.112;2023-04-24T07:50:43;14.40;99.90
6008;DHT22;3032;49.484;11.112;2023-04-24T07:53:09;13.80;99.90
6008;DHT22;3032;49.484;11.112;2023-04-24T07:55:34;13.70;99.90
6008;DHT22;3032;49.484;11.112;2023-04-24T07:58:00;14.10;99.90
6008;DHT22;3032;49.484;11.112;2023-04-24T08:00:26;14.20;99.90
6008;DHT22;3032;49.484;11.112;2023-04-24T08:02:51;14.30;99.90
6008;DHT22;3032;49.484;11.112;2023-04-24T08:05:17;14.90;99.90
6008;DHT22;3032;49.484;11.112;2023-04-24T08:07:42;15.80;99.90
6008;DHT22;3032;49.484;11.112;2023-04-24T08:10:10;16.50;99.90
6008;DHT22;3032;49.484;11.112;2023-04-24T08:12:36;16.80;99.90
6008;DHT22;3032;49.484;11.112;2023-04-24T08:15:02;16.90;99.90
6008;DHT22;3032;49.484;11.112;2023-04-24T08:17:28;17.10;99.90
6008;DHT22;3032;49.484;11.112;2023-04-24T08:19:53;17.70;99.90
6008;DHT22;3032;49.484;11.112;2023-04-24T08:22:29;18.30;99.90
6008;DHT22;3032;49.484;11.112;2023-04-24T08:24:55;17.90;99.90
6008;DHT22;3032;49.484;11.112;2023-04-24T08:27:22;17.30;99.90
6008;DHT22;3032;49.484;11.112;2023-04-24T08:29:48;16.70;99.90
6008;DHT22;3032;49.484;11.112;2023-04-24T08:32:14;16.70;99.90
6008;DHT22;3032;49.484;11.112;2023-04-24T08:34:39;16.60;99.90
6008;DHT22;3032;49.484;11.112;2023-04-24T08:37:05;16.30;99.90
6008;DHT22;3032;49.484;11.112;2023-04-24T08:39:31;15.40;99.90
6008;DHT22;3032;49.484;11.112;2023-04-24T08:41:56;15.10;99.90
6008;DHT22;3032;49.484;11.112;2023-04-24T08:44:23;14.90;99.90
6008;DHT22;3032;49.484;11.112;2023-04-24T08:46:48;15.10;99.90
6008;DHT22;3032;49.484;11.112;2023-04-24T08:49:15;15.70;99.90
6008;DHT22;3032;49.484;11.112;2023-04-24T08:51:41;16.60;99.90
6008;DHT22;3032;49.484;11.112;2023-04-24T08:54:07;17.00;99.90
6008;DHT22;3032;49.484;11.112;2023-04-24T08:56:34;17.70;99.90
6008;DHT22;3032;49.484;11.112;2023-04-24T08:59:04;18.20;99.90
6008;DHT22;3032;49.484;11.112;2023-04-24T09:01:32;19.10;99.10
6008;DHT22;3032;49.484;11.112;2023-04-24T09:04:02;19.20;97.90
6008;DHT22;3032;49.484;11.112;2023-04-24T09:06:28;18.80;97.20
6008;DHT22;3032;49.484;11.112;2023-04-24T09:08:55;18.30;97.10
6008;DHT22;3032;49.484;11.112;2023-04-24T09:11:22;17.20;98.00
6008;DHT22;3032;49.484;11.112;2023-04-24T09:13:50;16.70;99.90
6008;DHT22;3032;49.484;11.112;2023-04-24T09:16:16;16.60;99.90
6008;DHT22;3032;49.484;11.112;2023-04-24T09:18:42;16.90;99.90
6008;DHT22;3032;49.484;11.112;2023-04-24T09:21:08;16.90;99.90
6008;DHT22;3032;49.484;11.112;2023-04-24T09:23:34;17.10;99.90
6008;DHT22;3032;49.484;11.112;2023-04-24T09:26:01;18.70;98.80
6008;DHT22;3032;49.484;11.112;2023-04-24T09:28:29;20.00;97.00
6008;DHT22;3032;49.484;11.112;2023-04-24T09:31:06;20.70;95.00
6008;DHT22;3032;49.484;11.112;2023-04-24T09:33:32;20.30;93.20
6008;DHT22;3032;49.484;11.112;2023-04-24T09:35:58;19.10;94.20
6008;DHT22;3032;49.484;11.112;2023-04-24T09:38:34;18.40;94.80
6008;DHT22;3032;49.484;11.112;2023-04-24T09:41:05;17.40;97.20
6008;DHT22;3032;49.484;11.112;2023-04-24T09:43:31;17.10;98.70
6008;DHT22;3032;49.484;11.112;2023-04-24T09:45:58;17.60;99.90
6008;DHT22;3032;49.484;11.112;2023-04-24T09:48:32;19.70;98.40
6008;DHT22;3032;49.484;11.112;2023-04-24T09:50:59;21.10;96.10
6008;DHT22;3032;49.484;11.112;2023-04-24T09:53:27;21.60;94.50
6008;DHT22;3032;49.484;11.112;2023-04-24T09:55:52;21.60;92.30
6008;DHT22;3032;49.484;11.112;2023-04-24T09:58:24;21.40;92.50
6008;DHT22;3032;49.484;11.112;2023-04-24T10:00:53;21.30;91.70
6008;DHT22;3032;49.484;11.112;2023-04-24T10:03:19;21.40;89.30
6008;DHT22;3032;49.484;11.112;2023-04-24T10:05:46;22.20;90.10
6008;DHT22;3032;49.484;11.112;2023-04-24T10:08:12;21.30;80.60
6008;DHT22;3032;49.484;11.112;2023-04-24T10:10:41;20.10;82.90
6008;DHT22;3032;49.484;11.112;2023-04-24T10:13:08;19.10;84.40
6008;DHT22;3032;49.484;11.112;2023-04-24T10:15:34;18.40;85.50
6008;DHT22;3032;49.484;11.112;2023-04-24T10:18:00;17.90;86.40
6008;DHT22;3032;49.484;11.112;2023-04-24T10:20:28;18.10;86.90
6008;DHT22;3032;49.484;11.112;2023-04-24T10:22:58;19.20;85.40
6008;DHT22;3032;49.484;11.112;2023-04-24T10:25:27;20.70;80.60
6008;DHT22;3032;49.484;11.112;2023-04-24T10:27:54;21.80;75.70
6008;DHT22;3032;49.484;11.112;2023-04-24T10:30:23;21.70;73.00
6008;DHT22;3032;49.484;11.112;2023-04-24T10:32:48;21.50;79.20
6008;DHT22;3032;49.484;11.112;2023-04-24T10:35:15;20.80;78.00
6008;DHT22;3032;49.484;11.112;2023-04-24T10:37:44;19.60;79.20
6008;DHT22;3032;49.484;11.112;2023-04-24T10:40:11;19.00;81.00
6008;DHT22;3032;49.484;11.112;2023-04-24T10:42:40;18.40;84.80
6008;DHT22;3032;49.484;11.112;2023-04-24T10:45:19;17.70;90.90
6008;DHT22;3032;49.484;11.112;2023-04-24T10:48:03;17.00;92.90
6008;DHT22;3032;49.484;11.112;2023-04-24T10:50:41;16.60;94.50
6008;DHT22;3032;49.484;11.112;2023-04-24T10:53:13;16.60;95.80
6008;DHT22;3032;49.484;11.112;2023-04-24T10:55:47;18.00;94.60
6008;DHT22;3032;49.484;11.112;2023-04-24T10:58:13;18.00;93.50
6008;DHT22;3032;49.484;11.112;2023-04-24T11:00:40;17.40;92.50
6008;DHT22;3032;49.484;11.112;2023-04-24T11:03:12;16.70;93.20
6008;DHT22;3032;49.484;11.112;2023-04-24T11:06:03;16.20;94.60
6008;DHT22;3032;49.484;11.112;2023-04-24T11:08:42;15.60;94.50
6008;DHT22;3032;49.484;11.112;2023-04-24T11:11:10;15.10;95.20
6008;DHT22;3032;49.484;11.112;2023-04-24T11:22:02;14.80;95.10
6008;DHT22;3032;49.484;11.112;2023-04-24T11:24:48;15.00;93.00
6008;DHT22;3032;49.484;11.112;2023-04-24T11:27:16;15.20;93.10
6008;DHT22;3032;49.484;11.112;2023-04-24T11:29:44;15.40;92.00
6008;DHT22;3032;49.484;11.112;2023-04-24T11:34:54;16.20;93.00
6008;DHT22;3032;49.484;11.112;2023-04-24T11:37:22;16.90;91.10
6008;DHT22;3032;49.484;11.112;2023-04-24T11:39:51;17.60;91.00
6008;DHT22;3032;49.484;11.112;2023-04-24T11:42:17;18.30;88.40
6008;DHT22;3032;49.484;11.112;2023-04-24T11:44:43;18.20;86.50
6008;DHT22;3032;49.484;11.112;2023-04-24T11:47:09;17.90;87.60
6008;DHT22;3032;49.484;11.112;2023-04-24T11:49:37;17.60;88.40
6008;DHT22;3032;49.484;11.112;2023-04-24T11:52:03;17.40;90.30
6008;DHT22;3032;49.484;11.112;2023-04-24T11:54:29;16.20;91.30
6008;DHT22;3032;49.484;11.112;2023-04-24T11:56:55;15.60;93.40
6008;DHT22;3032;49.484;11.112;2023-04-24T11:59:21;15.30;93.80
6008;DHT22;3032;49.484;11.112;2023-04-24T12:01:47;15.00;95.10
6008;DHT22;3032;49.484;11.112;2023-04-24T12:04:14;14.60;96.40
6008;DHT22;3032;49.484;11.112;2023-04-24T12:06:58;14.40;96.20
6008;DHT22;3032;49.484;11.112;2023-04-24T12:09:24;14.40;96.40
6008;DHT22;3032;49.484;11.112;2023-04-24T12:11:56;14.80;95.80
6008;DHT22;3032;49.484;11.112;2023-04-24T12:14:22;15.20;95.50
6008;DHT22;3032;49.484;11.112;2023-04-24T12:16:49;15.80;94.10
6008;DHT22;3032;49.484;11.112;2023-04-24T12:19:23;16.10;93.10
6008;DHT22;3032;49.484;11.112;2023-04-24T12:22:05;16.40;92.30
6008;DHT22;3032;49.484;11.112;2023-04-24T12:24:31;16.60;92.10
6008;DHT22;3032;49.484;11.112;2023-04-24T12:26:58;16.80;91.90
6008;DHT22;3032;49.484;11.112;2023-04-24T12:29:24;17.20;92.60
6008;DHT22;3032;49.484;11.112;2023-04-24T12:31:51;17.30;91.20
6008;DHT22;3032;49.484;11.112;2023-04-24T12:34:21;16.90;92.00
6008;DHT22;3032;49.484;11.112;2023-04-24T12:36:47;16.30;92.10
6008;DHT22;3032;49.484;11.112;2023-04-24T12:39:17;16.20;91.90
6008;DHT22;3032;49.484;11.112;2023-04-24T12:41:57;16.40;92.00
6008;DHT22;3032;49.484;11.112;2023-04-24T12:44:33;16.50;91.40
6008;DHT22;3032;49.484;11.112;2023-04-24T12:47:00;17.10;91.90
6008;DHT22;3032;49.484;11.112;2023-04-24T12:49:26;17.50;91.90
6008;DHT22;3032;49.484;11.112;2023-04-24T12:51:52;17.80;90.20
6008;DHT22;3032;49.484;11.112;2023-04-24T12:54:18;17.60;90.50
6008;DHT22;3032;49.484;11.112;2023-04-24T12:56:44;17.50;91.10
6008;DHT22;3032;49.484;11.112;2023-04-24T12:59:09;17.40;90.60
6008;DHT22;3032;49.484;11.112;2023-04-24T13:01:35;16.90;89.40
6008;DHT22;3032;49.484;11.112;2023-04-24T13:04:00;16.40;90.80
6008;DHT22;3032;49.484;11.112;2023-04-24T13:06:26;16.50;91.30
6008;DHT22;3032;49.484;11.112;2023-04-24T13:08:52;16.70;90.60
6008;DHT22;3032;49.484;11.112;2023-04-24T13:11:17;16.20;91.80
6008;DHT22;3032;49.484;11.112;2023-04-24T13:13:43;16.30;91.60
6008;DHT22;3032;49.484;11.112;2023-04-24T13:16:09;16.40;91.50
6008;DHT22;3032;49.484;11.112;2023-04-24T13:18:34;17.00;91.50
6008;DHT22;3032;49.484;11.112;2023-04-24T13:21:00;17.60;90.50
6008;DHT22;3032;49.484;11.112;2023-04-24T13:23:26;17.80;90.20
6008;DHT22;3032;49.484;11.112;2023-04-24T13:25:51;17.30;89.40
6008;DHT22;3032;49.484;11.112;2023-04-24T13:28:17;16.20;91.30
6008;DHT22;3032;49.484;11.112;2023-04-24T13:30:43;15.50;92.20
6008;DHT22;3032;49.484;11.112;2023-04-24T13:33:09;15.00;94.10
6008;DHT22;3032;49.484;11.112;2023-04-24T13:35:34;14.70;94.80
6008;DHT22;3032;49.484;11.112;2023-04-24T13:38:00;14.60;95.10
6008;DHT22;3032;49.484;11.112;2023-04-24T13:40:27;14.70;96.10
6008;DHT22;3032;49.484;11.112;2023-04-24T13:42:52;14.60;95.90
6008;DHT22;3032;49.484;11.112;2023-04-24T13:45:18;14.60;94.80
6008;DHT22;3032;49.484;11.112;2023-04-24T13:47:44;14.40;94.80
6008;DHT22;3032;49.484;11.112;2023-04-24T13:50:10;14.30;95.10
6008;DHT22;3032;49.484;11.112;2023-04-24T13:52:35;14.40;95.20
6008;DHT22;3032;49.484;11.112;2023-04-24T13:55:01;14.30;96.90
6008;DHT22;3032;49.484;11.112;2023-04-24T13:57:26;14.50;94.90
6008;DHT22;3032;49.484;11.112;2023-04-24T13:59:53;15.10;94.60
6008;DHT22;3032;49.484;11.112;2023-04-24T14:02:21;14.40;94.20
6008;DHT22;3032;49.484;11.112;2023-04-24T14:04:47;14.20;94.70
6008;DHT22;3032;49.484;11.112;2023-04-24T14:07:13;14.00;94.40
6008;DHT22;3032;49.484;11.112;2023-04-24T14:09:39;14.20;94.90
6008;DHT22;3032;49.484;11.112;2023-04-24T14:12:04;14.60;95.10
6008;DHT22;3032;49.484;11.112;2023-04-24T14:14:31;14.90;94.60
6008;DHT22;3032;49.484;11.112;2023-04-24T14:16:57;15.40;95.10
6008;DHT22;3032;49.484;11.112;2023-04-24T14:19:22;16.40;93.40
6008;DHT22;3032;49.484;11.112;2023-04-24T14:21:48;17.10;92.00
6008;DHT22;3032;49.484;11.112;2023-04-24T14:24:13;17.50;92.60
6008;DHT22;3032;49.484;11.112;2023-04-24T14:26:39;18.00;90.70
6008;DHT22;3032;49.484;11.112;2023-04-24T14:29:04;18.20;91.00
6008;DHT22;3032;49.484;11.112;2023-04-24T14:31:31;17.70;90.10
6008;DHT22;3032;49.484;11.112;2023-04-24T14:33:56;17.40;90.60
6008;DHT22;3032;49.484;11.112;2023-04-24T14:36:22;17.00;91.20
6008;DHT22;3032;49.484;11.112;2023-04-24T14:38:49;16.90;91.10
6008;DHT22;3032;49.484;11.112;2023-04-24T14:41:14;16.80;91.60
6008;DHT22;3032;49.484;11.112;2023-04-24T14:43:40;16.00;92.90
6008;DHT22;3032;49.484;11.112;2023-04-24T14:46:05;15.90;92.90
6008;DHT22;3032;49.484;11.112;2023-04-24T14:48:31;15.60;93.80
6008;DHT22;3032;49.484;11.112;2023-04-24T14:50:57;15.50;94.00
6008;DHT22;3032;49.484;11.112;2023-04-24T14:53:23;15.00;93.70
6008;DHT22;3032;49.484;11.112;2023-04-24T14:55:49;15.20;92.80
6008;DHT22;3032;49.484;11.112;2023-04-24T14:58:14;16.00;93.50
6008;DHT22;3032;49.484;11.112;2023-04-24T15:00:40;16.80;92.70
6008;DHT22;3032;49.484;11.112;2023-04-24T15:03:06;17.00;92.10
6008;DHT22;3032;49.484;11.112;2023-04-24T15:05:32;17.00;92.60
6008;DHT22;3032;49.484;11.112;2023-04-24T15:07:58;17.10;93.30
6008;DHT22;3032;49.484;11.112;2023-04-24T15:10:23;16.90;92.00
6008;DHT22;3032;49.484;11.112;2023-04-24T15:12:50;16.30;91.80
6008;DHT22;3032;49.484;11.112;2023-04-24T15:15:16;15.40;92.70
6008;DHT22;3032;49.484;11.112;2023-04-24T15:17:42;15.20;93.40
6008;DHT22;3032;49.484;11.112;2023-04-24T15:20:08;15.40;93.80
6008;DHT22;3032;49.484;11.112;2023-04-24T15:22:34;15.20;93.40
6008;DHT22;3032;49.484;11.112;2023-04-24T15:24:59;15.00;94.50
6008;DHT22;3032;49.484;11.112;2023-04-24T15:27:26;14.90;95.00
6008;DHT22;3032;49.484;11.112;2023-04-24T15:29:52;14.80;95.20
6008;DHT22;3032;49.484;11.112;2023-04-24T15:32:18;14.90;95.00
6008;DHT22;3032;49.484;11.112;2023-04-24T15:34:44;14.70;95.80
6008;DHT22;3032;49.484;11.112;2023-04-24T15:37:10;14.70;96.00
6008;DHT22;3032;49.484;11.112;2023-04-24T15:39:35;14.60;95.90
6008;DHT22;3032;49.484;11.112;2023-04-24T15:42:02;14.50;96.70
6008;DHT22;3032;49.484;11.112;2023-04-24T15:44:27;14.30;96.90
6008;DHT22;3032;49.484;11.112;2023-04-24T15:46:53;14.20;97.70
6008;DHT22;3032;49.484;11.112;2023-04-24T15:49:18;14.30;97.60
6008;DHT22;3032;49.484;11.112;2023-04-24T15:51:44;14.20;96.50